Time;durP1;ratioP1;P1;durP2;ratioP2;P2;SDS_P1;SDS_P2;PMS_P1;PMS_P2;Temp;Humidity;BMP_temperature;BMP_pressure;BME280_temperature;BME280_humidity;BME280_pressure;Samples;Min_cycle;Max_cycle;Signal;HPM_P1;HPM_P2
2023/11/03 00:00:34;;;;;;;1.10;0.20;;;8.90;97.10;;;;;;6110803;23;20021;-83
2023/11/03 00:03:05;;;;;;;0.60;0.32;;;8.90;97.10;;;;;;6135182;23;20107;-83
2023/11/03 00:05:35;;;;;;;0.20;0.20;;;8.90;97.10;;;;;;6113404;23;20506;-83
2023/11/03 00:08:03;;;;;;;1.67;0.30;;;8.90;97.00;;;;;;6135990;23;20025;-83
2023/11/03 00:10:31;;;;;;;0.85;0.10;;;8.90;97.00;;;;;;6111198;23;20048;-83
2023/11/03 00:13:01;;;;;;;0.85;0.10;;;9.00;96.90;;;;;;6135390;23;20021;-83
2023/11/03 00:15:29;;;;;;;0.32;0.10;;;9.00;96.90;;;;;;6159508;23;20080;-83
2023/11/03 00:17:56;;;;;;;3.72;0.20;;;9.00;96.90;;;;;;6134768;23;20448;-83
2023/11/03 00:20:24;;;;;;;0.75;0.20;;;9.00;96.90;;;;;;6159369;23;20036;-83
2023/11/03 00:22:51;;;;;;;0.65;0.08;;;9.00;96.90;;;;;;6135077;23;20031;-83
2023/11/03 00:25:22;;;;;;;1.35;0.13;;;8.90;96.90;;;;;;6135007;23;20021;-83
2023/11/03 00:27:50;;;;;;;1.75;0.10;;;8.90;96.90;;;;;;6111653;23;20029;-82
2023/11/03 00:30:18;;;;;;;0.63;0.20;;;8.90;97.00;;;;;;6110784;23;20028;-82
2023/11/03 00:32:45;;;;;;;0.63;0.10;;;8.90;96.90;;;;;;6134992;23;20028;-83
2023/11/03 00:35:12;;;;;;;0.40;0.10;;;8.90;97.00;;;;;;6111006;23;20029;-83
2023/11/03 00:37:39;;;;;;;0.93;0.10;;;8.90;97.00;;;;;;6134524;23;20455;-83
2023/11/03 00:40:11;;;;;;;1.05;0.20;;;8.90;97.00;;;;;;6134716;23;20025;-83
2023/11/03 00:42:39;;;;;;;;;;;9.00;97.00;;;;;;6136707;23;20032;-83
2023/11/03 00:45:07;;;;;;;0.28;0.10;;;9.00;97.00;;;;;;6159003;23;19959;-82
2023/11/03 00:47:34;;;;;;;1.33;0.55;;;8.90;97.00;;;;;;6183997;23;20021;-82
2023/11/03 00:50:02;;;;;;;0.77;0.10;;;8.90;97.00;;;;;;6134639;23;20021;-83
2023/11/03 00:52:29;;;;;;;0.30;0.10;;;8.90;97.00;;;;;;6159353;23;20107;-83
2023/11/03 00:54:56;;;;;;;2.83;0.20;;;8.90;97.00;;;;;;6138199;23;20095;-83
2023/11/03 00:57:23;;;;;;;0.43;0.15;;;8.90;97.00;;;;;;6137495;23;20028;-83
2023/11/03 00:59:51;;;;;;;2.05;0.20;;;8.90;97.10;;;;;;6169833;23;20105;-82
2023/11/03 01:02:21;;;;;;;0.28;0.10;;;8.90;97.10;;;;;;6138419;23;20021;-83
2023/11/03 01:04:50;;;;;;;0.20;0.17;;;8.90;97.10;;;;;;6137324;23;20108;-83
2023/11/03 01:07:17;;;;;;;0.63;0.20;;;8.90;97.20;;;;;;6161680;23;20506;-83
2023/11/03 01:09:44;;;;;;;1.42;0.20;;;8.90;97.20;;;;;;6161687;23;20028;-83
2023/11/03 01:12:11;;;;;;;1.40;0.13;;;8.90;97.20;;;;;;6136773;23;20029;-82
2023/11/03 01:14:39;;;;;;;0.50;0.10;;;8.90;97.20;;;;;;6137087;23;20021;-83
2023/11/03 01:17:07;;;;;;;0.93;0.25;;;8.90;97.20;;;;;;6161413;23;20047;-83
2023/11/03 01:19:34;;;;;;;1.02;0.20;;;8.90;97.20;;;;;;6137183;23;20379;-84
2023/11/03 01:22:03;;;;;;;1.02;0.10;;;8.90;97.10;;;;;;6136316;23;20352;-83
2023/11/03 01:24:31;;;;;;;0.82;0.08;;;8.90;97.20;;;;;;6137409;23;20355;-83
2023/11/03 01:26:59;;;;;;;1.85;0.10;;;9.00;97.20;;;;;;6136643;23;20025;-83
2023/11/03 01:29:26;;;;;;;0.22;0.10;;;8.90;97.20;;;;;;6112556;23;20104;-83
2023/11/03 01:31:54;;;;;;;1.00;0.20;;;8.90;97.20;;;;;;6112317;23;20199;-83
2023/11/03 01:34:21;;;;;;;2.05;0.20;;;8.90;97.20;;;;;;6112049;23;20027;-82
2023/11/03 01:36:48;;;;;;;0.57;0.30;;;8.90;97.10;;;;;;6136045;23;20017;-82
2023/11/03 01:39:16;;;;;;;0.80;0.20;;;8.90;97.10;;;;;;6112268;23;20522;-82
2023/11/03 01:41:47;;;;;;;1.33;0.30;;;9.00;97.10;;;;;;6160540;23;20067;-83
2023/11/03 01:44:14;;;;;;;1.08;0.17;;;8.90;97.10;;;;;;6112026;23;20025;-82
2023/11/03 01:46:41;;;;;;;0.43;0.10;;;9.00;97.10;;;;;;6136084;23;20025;-83
2023/11/03 01:49:11;;;;;;;0.93;0.10;;;8.90;97.10;;;;;;6135984;23;20025;-83
2023/11/03 01:51:39;;;;;;;0.52;0.15;;;8.90;97.10;;;;;;6136885;23;20351;-82
2023/11/03 01:54:07;;;;;;;0.95;0.20;;;8.90;97.10;;;;;;6136696;23;20013;-82
2023/11/03 01:56:36;;;;;;;1.48;0.40;;;8.90;97.10;;;;;;6088050;23;20104;-83
2023/11/03 01:59:07;;;;;;;0.45;0.10;;;8.90;97.10;;;;;;6136008;23;20028;-83
2023/11/03 02:01:36;;;;;;;;;;;8.90;97.10;;;;;;6160896;23;20021;-83
2023/11/03 02:04:03;;;;;;;1.40;0.20;;;8.90;97.10;;;;;;6160131;23;19927;-83
2023/11/03 02:06:31;;;;;;;0.68;0.20;;;8.90;97.10;;;;;;6160708;23;20025;-83
2023/11/03 02:08:58;;;;;;;0.38;0.20;;;8.90;97.10;;;;;;6135923;23;20021;-83
2023/11/03 02:11:29;;;;;;;2.55;0.40;;;9.00;97.10;;;;;;6160503;23;20029;-83
2023/11/03 02:13:56;;;;;;;1.75;0.30;;;9.00;97.10;;;;;;6136433;23;20347;-82
2023/11/03 02:16:27;;;;;;;0.60;0.15;;;9.10;97.10;;;;;;6161336;23;20095;-83
2023/11/03 02:18:54;;;;;;;2.03;0.75;;;9.10;97.30;;;;;;6136134;23;20418;-83
2023/11/03 02:21:21;;;;;;;1.17;0.22;;;9.10;97.00;;;;;;6135766;23;20092;-83
2023/11/03 02:23:48;;;;;;;1.65;0.10;;;9.10;96.90;;;;;;6159950;23;20068;-83
2023/11/03 02:26:16;;;;;;;1.88;0.25;;;9.10;96.90;;;;;;6111663;23;20104;-83
2023/11/03 02:28:43;;;;;;;3.13;0.30;;;9.20;96.90;;;;;;6136296;23;20108;-84
2023/11/03 02:31:10;;;;;;;0.63;0.20;;;9.20;96.90;;;;;;6160118;23;20059;-83
2023/11/03 02:33:37;;;;;;;0.95;0.30;;;9.20;96.90;;;;;;6111559;23;20017;-83
2023/11/03 02:36:05;;;;;;;1.10;0.30;;;9.20;96.80;;;;;;6160309;23;20510;-83
2023/11/03 02:38:32;;;;;;;1.33;0.32;;;9.20;96.80;;;;;;6160399;23;20462;-84
2023/11/03 02:40:59;;;;;;;0.25;0.20;;;9.30;96.80;;;;;;6111291;23;20099;-83
2023/11/03 02:43:26;;;;;;;0.65;0.38;;;9.30;96.70;;;;;;6159792;23;20020;-83
2023/11/03 02:45:54;;;;;;;1.25;0.10;;;9.30;96.70;;;;;;6135712;23;20513;-83
2023/11/03 02:48:22;;;;;;;0.55;0.20;;;9.30;96.60;;;;;;6111840;23;20025;-83
2023/11/03 02:50:49;;;;;;;0.93;0.10;;;9.30;96.60;;;;;;6160534;23;20071;-83
2023/11/03 02:53:16;;;;;;;1.48;0.10;;;9.30;96.50;;;;;;6159944;23;20091;-83
2023/11/03 02:55:43;;;;;;;0.57;0.20;;;9.30;96.50;;;;;;6135807;23;20021;-83
2023/11/03 02:58:10;;;;;;;0.60;0.10;;;9.40;96.50;;;;;;6135273;23;20017;-83
2023/11/03 03:00:38;;;;;;;1.42;0.20;;;9.40;96.50;;;;;;6135952;23;20029;-83
2023/11/03 03:03:06;;;;;;;2.45;0.30;;;9.40;96.40;;;;;;6135312;23;20021;-84
2023/11/03 03:05:34;;;;;;;1.08;0.60;;;9.40;96.40;;;;;;6160237;23;20025;-83
2023/11/03 03:08:03;;;;;;;1.00;0.20;;;9.40;96.40;;;;;;6160796;23;20020;-84
2023/11/03 03:10:32;;;;;;;1.15;0.30;;;9.40;96.30;;;;;;6159876;23;20024;-84
2023/11/03 03:13:02;;;;;;;3.47;0.50;;;9.40;96.30;;;;;;6135484;23;20451;-83
2023/11/03 03:15:30;;;;;;;2.50;0.30;;;9.50;96.30;;;;;;6159733;23;20028;-84
2023/11/03 03:17:57;;;;;;;2.28;0.13;;;9.50;96.30;;;;;;6135122;23;20017;-84
2023/11/03 03:20:25;;;;;;;1.50;0.20;;;9.50;96.20;;;;;;6135704;23;20411;-84
2023/11/03 03:22:53;;;;;;;3.72;0.50;;;9.50;96.20;;;;;;6159988;23;20021;-84
2023/11/03 03:25:20;;;;;;;0.52;0.17;;;9.50;96.20;;;;;;6159898;23;20104;-83
2023/11/03 03:27:47;;;;;;;1.17;0.13;;;9.50;96.10;;;;;;6087297;23;20027;-83
2023/11/03 03:30:14;;;;;;;1.30;0.20;;;9.50;96.10;;;;;;6159863;23;20096;-83
2023/11/03 03:32:42;;;;;;;1.20;0.20;;;9.50;96.10;;;;;;6159601;23;20028;-83
2023/11/03 03:35:09;;;;;;;2.15;0.20;;;9.50;96.10;;;;;;6135963;23;20072;-83
2023/11/03 03:37:37;;;;;;;0.25;0.10;;;9.50;96.10;;;;;;6110812;23;20333;-84
2023/11/03 03:40:05;;;;;;;1.33;0.30;;;9.50;96.10;;;;;;6134885;23;20025;-83
2023/11/03 03:42:36;;;;;;;0.93;0.20;;;9.50;96.00;;;;;;6159687;23;20056;-83
2023/11/03 03:45:03;;;;;;;1.77;0.32;;;9.60;96.00;;;;;;6111583;23;20063;-83
2023/11/03 03:47:30;;;;;;;3.35;0.40;;;9.50;96.00;;;;;;6135149;23;20028;-83
2023/11/03 03:49:58;;;;;;;0.80;0.20;;;9.50;96.00;;;;;;6135243;23;20424;-82
2023/11/03 03:52:25;;;;;;;2.70;0.40;;;9.50;96.00;;;;;;6110903;23;20021;-83
2023/11/03 03:54:52;;;;;;;0.52;0.43;;;9.60;96.00;;;;;;6135213;23;20017;-83
2023/11/03 03:57:19;;;;;;;1.52;0.20;;;9.60;96.00;;;;;;6134898;23;20319;-83
2023/11/03 03:59:47;;;;;;;0.88;0.20;;;9.60;95.90;;;;;;6135202;23;20443;-83
2023/11/03 04:02:14;;;;;;;2.47;0.75;;;9.60;95.90;;;;;;6160043;23;20499;-83
2023/11/03 04:04:44;;;;;;;0.77;0.20;;;9.60;96.00;;;;;;6136819;23;20108;-83
2023/11/03 04:07:12;;;;;;;0.70;0.20;;;9.60;95.80;;;;;;6135323;23;20072;-83
2023/11/03 04:09:41;;;;;;;1.60;0.60;;;9.60;95.90;;;;;;6135793;23;20479;-83
2023/11/03 04:12:08;;;;;;;1.08;0.30;;;9.60;95.90;;;;;;6159747;23;20021;-83
2023/11/03 04:14:35;;;;;;;0.73;0.20;;;9.60;95.90;;;;;;6159787;23;20096;-84
2023/11/03 04:17:03;;;;;;;0.30;0.20;;;9.60;95.90;;;;;;6134948;23;20024;-83
2023/11/03 04:19:30;;;;;;;1.33;0.20;;;9.60;96.00;;;;;;6135241;23;20025;-83
2023/11/03 04:21:57;;;;;;;0.57;0.20;;;9.50;96.00;;;;;;6159961;23;20013;-83
2023/11/03 04:24:24;;;;;;;1.30;0.20;;;9.50;96.00;;;;;;6159510;23;20043;-83
2023/11/03 04:26:51;;;;;;;0.75;0.25;;;9.50;96.10;;;;;;6159387;23;20021;-83
2023/11/03 04:29:21;;;;;;;1.75;0.28;;;9.50;96.10;;;;;;6159663;23;20382;-83
2023/11/03 04:31:49;;;;;;;1.00;0.28;;;9.50;96.20;;;;;;6135249;23;20490;-83
2023/11/03 04:34:16;;;;;;;3.35;0.60;;;9.40;96.30;;;;;;6134605;23;20051;-84
2023/11/03 04:36:44;;;;;;;1.35;0.40;;;9.30;96.30;;;;;;6158990;23;20016;-83
2023/11/03 04:39:12;;;;;;;2.53;0.30;;;9.30;96.40;;;;;;6134825;23;20021;-83
2023/11/03 04:41:39;;;;;;;2.63;0.40;;;9.20;96.60;;;;;;6159232;23;20325;-83
2023/11/03 04:44:06;;;;;;;2.33;0.30;;;9.10;96.60;;;;;;6135090;23;20076;-83
2023/11/03 04:46:33;;;;;;;2.15;0.40;;;9.10;96.80;;;;;;6159783;23;20013;-83
2023/11/03 04:49:02;;;;;;;1.70;0.28;;;9.00;96.80;;;;;;6134697;23;20029;-83
2023/11/03 04:51:30;;;;;;;2.33;0.40;;;9.00;96.90;;;;;;6159336;23;20060;-83
2023/11/03 04:53:57;;;;;;;1.45;0.30;;;8.90;97.00;;;;;;6135376;23;20021;-83
2023/11/03 04:56:25;;;;;;;1.15;0.30;;;8.90;97.00;;;;;;6134716;23;20027;-83
2023/11/03 04:58:52;;;;;;;1.17;0.40;;;8.90;97.10;;;;;;6134846;23;20025;-83
2023/11/03 05:01:19;;;;;;;2.00;0.40;;;8.90;97.20;;;;;;6159399;23;20023;-83
2023/11/03 05:03:47;;;;;;;1.23;0.43;;;8.90;97.20;;;;;;6135063;23;20056;-82
2023/11/03 05:06:17;;;;;;;1.10;0.35;;;8.80;97.20;;;;;;6135625;23;20104;-83
2023/11/03 05:08:47;;;;;;;3.30;0.30;;;8.90;97.30;;;;;;6158858;23;20443;-83
2023/11/03 05:11:14;;;;;;;1.45;0.50;;;8.80;97.30;;;;;;6185544;23;20028;-82
2023/11/03 05:13:43;;;;;;;3.22;0.70;;;8.80;97.40;;;;;;6137386;23;20049;-83
2023/11/03 05:16:13;;;;;;;3.17;0.60;;;8.80;97.50;;;;;;6136593;23;20021;-82
2023/11/03 05:18:40;;;;;;;3.35;0.60;;;8.80;97.50;;;;;;6168030;23;20021;-82
2023/11/03 05:21:11;;;;;;;3.15;0.60;;;8.80;97.50;;;;;;6135681;23;20017;-81
2023/11/03 05:23:39;;;;;;;3.10;0.43;;;8.80;97.50;;;;;;6159118;23;20021;-81
2023/11/03 05:26:09;;;;;;;1.83;0.43;;;8.80;97.50;;;;;;6111233;23;20025;-82
2023/11/03 05:28:36;;;;;;;2.30;0.40;;;8.80;97.60;;;;;;6135440;23;20025;-81
2023/11/03 05:31:05;;;;;;;1.27;0.50;;;8.80;97.60;;;;;;6159457;23;20328;-82
2023/11/03 05:33:32;;;;;;;2.72;0.50;;;8.80;97.60;;;;;;6135028;23;20371;-82
2023/11/03 05:35:59;;;;;;;3.70;0.93;;;8.80;97.60;;;;;;6134739;23;20029;-83
2023/11/03 05:38:26;;;;;;;2.75;0.40;;;8.80;97.60;;;;;;6134753;23;20021;-83
2023/11/03 05:40:53;;;;;;;1.75;0.60;;;8.90;97.60;;;;;;6136290;23;20021;-83
2023/11/03 05:43:20;;;;;;;1.30;0.45;;;8.80;97.60;;;;;;6112363;23;20029;-83
2023/11/03 05:45:47;;;;;;;4.38;1.52;;;8.90;97.60;;;;;;6136236;23;20112;-83
2023/11/03 05:48:14;;;;;;;8.48;0.70;;;8.90;97.70;;;;;;6136122;23;20024;-83
2023/11/03 05:50:42;;;;;;;1.90;0.50;;;8.90;97.60;;;;;;6135852;23;20144;-82
2023/11/03 05:53:09;;;;;;;1.70;0.43;;;8.90;97.60;;;;;;6088223;23;20047;-82
2023/11/03 05:55:36;;;;;;;1.35;0.30;;;8.90;97.70;;;;;;6111799;23;20106;-82
2023/11/03 05:58:04;;;;;;;0.90;0.20;;;8.90;97.60;;;;;;6135713;23;20108;-83
2023/11/03 06:00:31;;;;;;;1.77;0.30;;;8.90;97.70;;;;;;6160596;23;20025;-83
2023/11/03 06:02:59;;;;;;;3.10;0.50;;;8.90;97.70;;;;;;6136262;23;20024;-83
2023/11/03 06:05:27;;;;;;;2.95;0.70;;;9.00;97.70;;;;;;6112524;23;20031;-83
2023/11/03 06:07:54;;;;;;;2.80;0.60;;;8.90;97.70;;;;;;6111680;23;20025;-82
2023/11/03 06:10:21;;;;;;;3.58;0.73;;;9.00;97.70;;;;;;6136162;23;20025;-83
2023/11/03 06:12:50;;;;;;;7.15;0.95;;;9.00;97.70;;;;;;6136284;23;20459;-83
2023/11/03 06:15:18;;;;;;;6.50;1.13;;;9.00;97.60;;;;;;6160312;23;20428;-83
2023/11/03 06:17:51;;;;;;;3.40;0.80;;;9.00;97.60;;;;;;6136374;23;20100;-83
2023/11/03 06:20:18;;;;;;;4.13;0.93;;;9.00;97.50;;;;;;6136877;23;20343;-83
2023/11/03 06:22:45;;;;;;;6.43;1.70;;;9.00;97.50;;;;;;6111872;23;20350;-83
2023/11/03 06:25:13;;;;;;;5.13;1.15;;;9.10;97.50;;;;;;6135841;23;20025;-83
2023/11/03 06:27:40;;;;;;;4.65;0.90;;;9.10;97.50;;;;;;6111965;23;20463;-83
2023/11/03 06:30:07;;;;;;;4.57;1.35;;;9.10;97.50;;;;;;6087779;23;20017;-83
2023/11/03 06:32:34;;;;;;;3.40;0.82;;;9.00;97.50;;;;;;6111469;23;20052;-83
2023/11/03 06:35:04;;;;;;;3.47;0.68;;;9.10;97.50;;;;;;6111905;23;20020;-84
2023/11/03 06:37:34;;;;;;;6.07;0.75;;;9.10;97.60;;;;;;6135799;23;20025;-83
2023/11/03 06:40:04;;;;;;;3.03;0.52;;;9.00;97.60;;;;;;6185236;23;20027;-84
2023/11/03 06:42:31;;;;;;;3.25;0.85;;;9.00;97.60;;;;;;6135641;23;20021;-83
2023/11/03 06:44:58;;;;;;;1.55;0.50;;;9.00;97.70;;;;;;6160201;23;20031;-83
2023/11/03 06:47:25;;;;;;;2.55;0.38;;;9.00;97.70;;;;;;6111502;23;20071;-82
2023/11/03 06:49:53;;;;;;;3.00;0.50;;;9.00;97.70;;;;;;6112198;23;20104;-82
2023/11/03 06:52:20;;;;;;;4.03;0.63;;;9.00;97.70;;;;;;6136072;23;20124;-86
2023/11/03 06:54:47;;;;;;;5.10;0.75;;;9.00;97.70;;;;;;6135965;23;20017;-83
2023/11/03 06:57:22;;;;;;;2.90;0.50;;;9.00;97.80;;;;;;6136727;23;20072;-84
2023/11/03 06:59:50;;;;;;;3.38;0.50;;;9.00;97.80;;;;;;6135747;23;20040;-83
2023/11/03 07:02:18;;;;;;;4.05;0.52;;;9.00;97.80;;;;;;6160473;23;20044;-82
2023/11/03 07:04:45;;;;;;;3.90;0.40;;;9.00;97.80;;;;;;6135883;23;20027;-84
2023/11/03 07:07:15;;;;;;;3.75;0.50;;;9.10;97.90;;;;;;6161368;23;20027;-84
2023/11/03 07:09:42;;;;;;;3.85;0.52;;;9.00;97.90;;;;;;6136655;23;20017;-83
2023/11/03 07:12:11;;;;;;;1.75;0.65;;;9.00;97.90;;;;;;6111769;23;20016;-83
2023/11/03 07:14:38;;;;;;;2.20;0.40;;;9.10;97.90;;;;;;6136014;23;20013;-82
2023/11/03 07:17:05;;;;;;;2.20;0.50;;;9.10;97.90;;;;;;6135960;23;20035;-83
2023/11/03 07:19:32;;;;;;;1.73;0.40;;;9.00;97.90;;;;;;6111578;23;20017;-86
2023/11/03 07:22:00;;;;;;;2.35;0.32;;;9.00;98.20;;;;;;6135838;23;20124;-83
2023/11/03 07:24:27;;;;;;;3.80;0.90;;;9.10;98.00;;;;;;6136028;23;20044;-83
2023/11/03 07:26:54;;;;;;;1.33;0.40;;;9.10;98.00;;;;;;6135840;23;20025;-85
2023/11/03 07:29:22;;;;;;;1.98;0.40;;;9.10;98.00;;;;;;6136341;23;20104;-83
2023/11/03 07:31:49;;;;;;;3.17;0.35;;;9.10;98.00;;;;;;6135539;23;20550;-84
2023/11/03 07:34:23;;;;;;;2.25;0.40;;;9.10;98.00;;;;;;6160576;23;20016;-90
2023/11/03 07:38:05;;;;;;;;;;;;;;;;;;;;;
2023/11/03 07:41:14;;;;;;;;;;;;;;;;;;;;;
2023/11/03 07:44:12;;;;;;;5.28;0.50;;;9.10;98.00;;;;;;6180103;23;20020;-89
2023/11/03 07:47:09;;;;;;;;;;;9.20;98.10;;;;;;6160973;23;20044;-88
2023/11/03 07:49:41;;;;;;;5.47;0.50;;;9.10;98.00;;;;;;6137427;23;20022;-88
2023/11/03 07:52:26;;;;;;;2.38;0.32;;;9.20;98.00;;;;;;6135876;23;20406;-89
2023/11/03 07:55:25;;;;;;;3.10;0.40;;;9.20;98.00;;;;;;6119436;23;20067;-89
2023/11/03 07:57:56;;;;;;;1.02;0.20;;;9.30;97.90;;;;;;6160401;23;20017;-88
2023/11/03 08:00:42;;;;;;;2.30;0.50;;;9.30;97.90;;;;;;6161734;23;20013;-88
2023/11/03 08:03:33;;;;;;;3.65;0.50;;;9.30;97.90;;;;;;6162319;23;20474;-88
2023/11/03 08:06:12;;;;;;;2.17;0.60;;;9.40;97.90;;;;;;6160884;23;20040;-89
2023/11/03 08:09:11;;;;;;;2.65;0.30;;;9.40;97.80;;;;;;6184842;23;20017;-89
2023/11/03 08:11:49;;;;;;;1.02;0.35;;;9.50;97.70;;;;;;6160308;23;20048;-85
2023/11/03 08:14:16;;;;;;;4.35;0.80;;;9.50;97.70;;;;;;6135121;23;20092;-85
2023/11/03 08:16:44;;;;;;;2.25;0.50;;;9.50;97.70;;;;;;6110990;23;20013;-85
2023/11/03 08:19:12;;;;;;;3.70;0.30;;;9.60;97.60;;;;;;6159646;23;20025;-83
2023/11/03 08:21:43;;;;;;;2.45;0.32;;;9.70;97.60;;;;;;6135286;23;20457;-84
2023/11/03 08:24:14;;;;;;;4.75;0.50;;;9.70;97.50;;;;;;6111681;23;20025;-85
2023/11/03 08:26:41;;;;;;;2.70;0.40;;;9.70;97.40;;;;;;6159634;23;20021;-85
2023/11/03 08:29:10;;;;;;;2.38;0.55;;;9.80;97.40;;;;;;6135338;23;20100;-86
2023/11/03 08:31:40;;;;;;;4.95;1.10;;;9.80;97.40;;;;;;6136586;23;20032;-86
2023/11/03 08:34:09;;;;;;;3.70;0.70;;;9.90;97.30;;;;;;6159896;23;20042;-87
2023/11/03 08:36:37;;;;;;;5.53;0.55;;;9.90;97.20;;;;;;6134987;23;20013;-84
2023/11/03 08:39:06;;;;;;;4.70;0.68;;;9.90;97.10;;;;;;6135494;23;20021;-83
2023/11/03 08:41:54;;;;;;;4.78;0.80;;;10.00;97.10;;;;;;6119986;23;20021;-89
2023/11/03 08:44:22;;;;;;;6.88;0.95;;;10.10;96.80;;;;;;6160259;23;20029;-84
2023/11/03 08:46:52;;;;;;;4.90;1.00;;;10.20;96.70;;;;;;6184485;23;20116;-85
2023/11/03 08:49:19;;;;;;;4.05;0.60;;;10.30;96.70;;;;;;6161364;23;20072;-87
2023/11/03 08:51:47;;;;;;;7.38;0.70;;;10.40;96.50;;;;;;6135231;23;20027;-84
2023/11/03 08:54:14;;;;;;;10.30;1.42;;;10.50;96.30;;;;;;6159813;23;20017;-86
2023/11/03 08:56:42;;;;;;;7.13;0.98;;;10.50;96.10;;;;;;6160331;23;20021;-88
2023/11/03 08:59:09;;;;;;;4.55;0.70;;;10.60;96.00;;;;;;6115933;23;20502;-85
2023/11/03 09:01:38;;;;;;;7.20;0.82;;;10.70;96.00;;;;;;6135020;23;20021;-86
2023/11/03 09:04:08;;;;;;;5.18;1.08;;;10.90;95.80;;;;;;6159458;23;20507;-86
2023/11/03 09:06:36;;;;;;;7.05;0.70;;;11.00;95.70;;;;;;6135269;23;20017;-88
2023/11/03 09:09:12;;;;;;;8.32;1.23;;;11.00;95.40;;;;;;6160249;23;20099;-89
2023/11/03 09:11:46;;;;;;;7.50;0.80;;;11.00;95.00;;;;;;6160968;23;20021;-86
2023/11/03 09:14:13;;;;;;;8.95;1.27;;;11.10;95.00;;;;;;6135920;23;20017;-85
2023/11/03 09:16:40;;;;;;;4.68;1.17;;;11.10;94.60;;;;;;6186621;23;20017;-85
2023/11/03 09:19:07;;;;;;;5.30;0.80;;;11.10;94.80;;;;;;6137995;23;20339;-86
2023/11/03 09:21:35;;;;;;;4.90;0.90;;;11.10;94.70;;;;;;6137517;23;20029;-85
2023/11/03 09:24:05;;;;;;;7.40;2.28;;;11.20;94.70;;;;;;6187005;23;20021;-90
2023/11/03 09:26:32;;;;;;;8.00;1.70;;;11.20;94.60;;;;;;6161719;23;20052;-87
2023/11/03 09:29:01;;;;;;;5.35;2.00;;;11.20;94.50;;;;;;6162434;23;20087;-86
2023/11/03 09:31:29;;;;;;;9.88;1.67;;;11.30;94.60;;;;;;6161487;23;20017;-83
2023/11/03 09:33:57;;;;;;;8.30;1.95;;;11.30;94.40;;;;;;6117052;23;20017;-82
2023/11/03 09:36:24;;;;;;;5.97;1.33;;;11.30;94.30;;;;;;6168030;23;20104;-83
2023/11/03 09:38:51;;;;;;;7.03;1.10;;;11.30;94.40;;;;;;6177348;23;20025;-83
2023/11/03 09:41:19;;;;;;;7.22;1.13;;;11.40;94.10;;;;;;6170783;23;20025;-82
2023/11/03 09:43:47;;;;;;;7.93;1.33;;;11.40;93.90;;;;;;6167558;23;20032;-86
2023/11/03 09:46:15;;;;;;;5.32;0.70;;;11.40;93.90;;;;;;6137993;23;20044;-87
2023/11/03 09:48:43;;;;;;;5.85;0.88;;;11.40;93.90;;;;;;6137612;23;20108;-87
2023/11/03 09:51:14;;;;;;;4.80;0.68;;;11.40;94.10;;;;;;6138774;23;20021;-87
2023/11/03 09:53:47;;;;;;;4.55;1.10;;;11.40;93.90;;;;;;6137948;23;20013;-87
2023/11/03 09:56:18;;;;;;;3.92;1.27;;;11.40;93.60;;;;;;6162566;23;20040;-87
2023/11/03 09:58:48;;;;;;;4.68;0.70;;;11.40;93.70;;;;;;6161468;23;20031;-86
2023/11/03 10:01:19;;;;;;;7.15;0.82;;;11.40;93.90;;;;;;6161343;23;20021;-87
2023/11/03 10:03:47;;;;;;;6.75;1.10;;;11.40;93.90;;;;;;6161427;23;20021;-85
2023/11/03 10:06:14;;;;;;;4.95;1.20;;;11.40;93.40;;;;;;6128097;23;20029;-85
2023/11/03 10:08:44;;;;;;;6.25;1.00;;;11.30;93.30;;;;;;6126826;23;20025;-85
2023/11/03 10:11:11;;;;;;;6.25;0.88;;;11.30;93.60;;;;;;6078773;23;20014;-85
2023/11/03 10:13:38;;;;;;;5.07;0.80;;;11.30;93.40;;;;;;6103114;23;20014;-87
2023/11/03 10:16:07;;;;;;;3.50;0.90;;;11.30;93.40;;;;;;6102707;23;20314;-86
2023/11/03 10:18:38;;;;;;;4.70;0.50;;;11.30;93.70;;;;;;6102424;23;20068;-86
2023/11/03 10:21:08;;;;;;;4.15;0.60;;;11.30;93.60;;;;;;6102682;23;20044;-86
2023/11/03 10:23:38;;;;;;;3.72;0.60;;;11.30;93.60;;;;;;6102438;23;20022;-85
2023/11/03 10:26:06;;;;;;;4.47;0.80;;;11.30;93.70;;;;;;6101950;23;20025;-86
2023/11/03 10:28:36;;;;;;;5.68;0.90;;;11.30;93.80;;;;;;6055081;23;20034;-86
2023/11/03 10:31:04;;;;;;;5.60;1.10;;;11.40;93.70;;;;;;6102051;23;20104;-87
2023/11/03 10:33:31;;;;;;;3.28;0.68;;;11.40;93.80;;;;;;6102669;23;20030;-86
2023/11/03 10:36:01;;;;;;;5.15;0.77;;;11.40;93.80;;;;;;6078003;23;20373;-86
2023/11/03 10:38:29;;;;;;;4.68;0.57;;;11.40;93.80;;;;;;6096725;23;20046;-86
2023/11/03 10:41:00;;;;;;;4.85;0.95;;;11.40;93.70;;;;;;6073455;23;20018;-85
2023/11/03 10:43:29;;;;;;;3.22;0.60;;;11.50;93.70;;;;;;6121649;23;20074;-85
2023/11/03 10:46:14;;;;;;;3.20;0.60;;;11.40;93.70;;;;;;6097364;23;20022;-86
2023/11/03 10:48:45;;;;;;;3.63;0.40;;;11.40;93.80;;;;;;6121965;23;20022;-85
2023/11/03 10:51:33;;;;;;;1.45;0.30;;;11.40;93.90;;;;;;6097638;23;20104;-85
2023/11/03 10:54:07;;;;;;;2.13;0.52;;;11.40;93.80;;;;;;6097292;23;20022;-85
2023/11/03 10:56:35;;;;;;;7.68;1.05;;;11.50;93.90;;;;;;6121016;23;20449;-86
2023/11/03 10:59:23;;;;;;;3.40;0.57;;;11.40;93.80;;;;;;6072819;23;20330;-85
2023/11/03 11:02:14;;;;;;;2.67;0.50;;;11.40;93.80;;;;;;6099053;23;20365;-85
2023/11/03 11:05:15;;;;;;;5.78;0.73;;;11.50;93.80;;;;;;6120951;23;20053;-84
2023/11/03 11:07:49;;;;;;;4.43;0.75;;;11.50;93.60;;;;;;6071903;23;20023;-84
2023/11/03 11:10:19;;;;;;;6.82;0.70;;;11.40;93.70;;;;;;6096575;23;20026;-85
2023/11/03 11:12:48;;;;;;;4.60;0.70;;;11.50;93.70;;;;;;6073132;23;20026;-84
2023/11/03 11:15:19;;;;;;;2.75;0.60;;;11.50;93.70;;;;;;6072758;23;20025;-84
2023/11/03 11:17:46;;;;;;;1.75;0.50;;;11.60;93.70;;;;;;6071629;23;20073;-85
2023/11/03 11:20:19;;;;;;;3.53;0.60;;;11.70;93.60;;;;;;6072695;23;20441;-83
2023/11/03 11:23:06;;;;;;;2.38;0.52;;;11.80;93.60;;;;;;6051989;23;20085;-84
2023/11/03 11:25:33;;;;;;;5.63;0.70;;;11.90;93.40;;;;;;6072321;23;20034;-84
2023/11/03 11:28:00;;;;;;;4.85;0.70;;;12.00;93.10;;;;;;6072056;23;20030;-84
2023/11/03 11:30:33;;;;;;;1.95;0.45;;;12.00;93.10;;;;;;6072092;23;20022;-84
2023/11/03 11:33:00;;;;;;;7.13;1.20;;;12.00;93.10;;;;;;6096245;23;20097;-84
2023/11/03 11:35:38;;;;;;;5.75;0.60;;;12.00;92.80;;;;;;6071792;23;20472;-84
2023/11/03 11:38:06;;;;;;;5.07;0.60;;;12.00;92.70;;;;;;6072046;23;20386;-84
2023/11/03 11:40:33;;;;;;;10.27;0.90;;;12.00;92.70;;;;;;6095390;23;20032;-84
2023/11/03 11:43:02;;;;;;;5.18;0.60;;;12.00;92.50;;;;;;6048080;23;20025;-83
2023/11/03 11:45:44;;;;;;;8.10;1.20;;;12.00;92.50;;;;;;6071353;23;20109;-83
2023/11/03 11:48:16;;;;;;;3.83;0.60;;;12.10;92.30;;;;;;6047863;23;20026;-82
2023/11/03 11:50:46;;;;;;;5.63;0.60;;;12.20;92.30;;;;;;6095839;23;20029;-83
2023/11/03 11:53:14;;;;;;;3.83;0.73;;;12.20;92.40;;;;;;6070947;23;20074;-83
2023/11/03 11:55:43;;;;;;;2.75;0.50;;;12.30;92.40;;;;;;6071683;23;20532;-82
2023/11/03 11:58:13;;;;;;;5.60;1.42;;;12.30;92.20;;;;;;6096423;23;20019;-83
2023/11/03 12:00:41;;;;;;;5.63;0.80;;;12.40;92.30;;;;;;6095877;23;20345;-83
2023/11/03 12:03:09;;;;;;;3.20;0.57;;;12.30;92.10;;;;;;6072815;23;20341;-87
2023/11/03 12:05:37;;;;;;;4.28;0.50;;;12.30;92.20;;;;;;6072845;23;20468;-86
2023/11/03 12:08:06;;;;;;;7.65;1.10;;;12.30;92.20;;;;;;6120833;23;20027;-88
2023/11/03 12:10:35;;;;;;;3.28;0.40;;;12.30;92.10;;;;;;6072957;23;20053;-87
2023/11/03 12:13:04;;;;;;;1.98;0.45;;;12.30;92.10;;;;;;6096994;23;20085;-86
2023/11/03 12:15:34;;;;;;;3.88;0.95;;;12.30;92.20;;;;;;6072787;23;20049;-89
2023/11/03 12:18:01;;;;;;;2.45;0.40;;;12.40;92.00;;;;;;6073068;23;20030;-89
2023/11/03 12:20:34;;;;;;;2.78;0.57;;;12.50;91.90;;;;;;6097664;23;20467;-85
2023/11/03 12:23:09;;;;;;;3.15;0.32;;;12.60;91.80;;;;;;6072737;23;20344;-89
2023/11/03 12:25:42;;;;;;;2.58;0.50;;;12.70;91.60;;;;;;6049562;23;20022;-87
2023/11/03 12:28:21;;;;;;;6.72;1.45;;;12.60;91.60;;;;;;6095266;23;20053;-88
2023/11/03 12:30:55;;;;;;;7.63;0.98;;;12.60;91.50;;;;;;6072344;23;20026;-86
2023/11/03 12:33:22;;;;;;;4.00;0.50;;;12.60;91.30;;;;;;6048207;23;20023;-83
2023/11/03 12:35:50;;;;;;;6.28;0.88;;;12.60;91.30;;;;;;6071651;23;20350;-83
2023/11/03 12:38:17;;;;;;;6.22;0.60;;;12.70;91.00;;;;;;6095271;23;20026;-82
2023/11/03 12:40:46;;;;;;;5.07;0.60;;;12.70;90.90;;;;;;6072292;23;20014;-87
2023/11/03 12:43:16;;;;;;;6.22;1.02;;;12.70;90.90;;;;;;6048911;23;20019;-83
2023/11/03 12:45:44;;;;;;;5.32;0.65;;;12.70;91.00;;;;;;6095621;23;20022;-87
2023/11/03 12:48:22;;;;;;;5.10;0.65;;;12.70;91.10;;;;;;6072010;23;20030;-83
2023/11/03 12:50:56;;;;;;;3.90;0.40;;;12.70;90.70;;;;;;6073149;23;20022;-87
2023/11/03 12:53:23;;;;;;;4.70;0.70;;;12.70;90.90;;;;;;6098034;23;20022;-83
2023/11/03 12:56:04;;;;;;;7.18;0.80;;;12.60;90.80;;;;;;6097398;23;20022;-82
2023/11/03 12:58:31;;;;;;;5.50;0.80;;;12.60;90.80;;;;;;6050133;23;20018;-86
2023/11/03 13:01:04;;;;;;;3.35;0.47;;;12.50;90.80;;;;;;6074008;23;20029;-87
2023/11/03 13:03:31;;;;;;;4.18;0.57;;;12.50;90.40;;;;;;6098580;23;20461;-86
2023/11/03 13:05:59;;;;;;;3.55;0.70;;;12.40;90.70;;;;;;6074785;23;20446;-85
2023/11/03 13:08:26;;;;;;;3.80;0.70;;;12.30;90.80;;;;;;6098472;23;20064;-86